Time;durP1;ratioP1;P1;durP2;ratioP2;P2;SDS_P1;SDS_P2;PMS_P1;PMS_P2;Temp;Humidity;BMP_temperature;BMP_pressure;BME280_temperature;BME280_humidity;BME280_pressure;Samples;Min_cycle;Max_cycle;Signal;HPM_P1;HPM_P2
2021/01/29 00:01:33;;;;;;;26.05;10.70;;;;;;;8.20;100.00;99519.91;10259943;28;20407;-72
2021/01/29 00:06:34;;;;;;;25.58;9.57;;;;;;;8.25;100.00;99507.38;10278803;28;20086;-72
2021/01/29 00:11:35;;;;;;;16.77;8.48;;;;;;;8.23;100.00;99485.59;10279642;28;20042;-72
2021/01/29 00:16:36;;;;;;;23.00;8.23;;;;;;;8.30;100.00;99473.84;10294865;28;20125;-72
2021/01/29 00:21:37;;;;;;;30.95;9.50;;;;;;;8.27;100.00;99453.91;10294040;28;20042;-72
2021/01/29 00:26:39;;;;;;;20.05;8.93;;;;;;;8.24;100.00;99425.19;10294007;28;20043;-72
2021/01/29 00:31:40;;;;;;;20.10;8.52;;;;;;;8.13;100.00;99417.03;10237483;29;20047;-72
2021/01/29 00:36:41;;;;;;;23.85;8.52;;;;;;;8.05;100.00;99397.38;10253426;29;20203;-72
2021/01/29 00:41:42;;;;;;;26.55;8.95;;;;;;;7.94;100.00;99392.72;10253788;29;20083;-72
2021/01/29 00:46:43;;;;;;;19.70;8.68;;;;;;;8.03;100.00;99387.00;10252776;29;20055;-72
2021/01/29 00:51:45;;;;;;;24.48;8.80;;;;;;;8.11;100.00;99373.47;10236323;29;20047;-72
2021/01/29 00:56:46;;;;;;;22.88;8.15;;;;;;;8.15;100.00;99364.50;10235167;29;20130;-72
2021/01/29 01:01:50;;;;;;;21.10;7.27;;;;;;;8.17;100.00;99336.41;10236316;28;20078;-72
2021/01/29 01:06:52;;;;;;;14.50;6.75;;;;;;;8.09;100.00;99322.88;10231553;29;20472;-72
2021/01/29 01:12:31;;;;;;;17.35;6.82;;;;;;;8.25;100.00;99326.34;10201596;29;20091;-72
2021/01/29 01:17:42;;;;;;;16.33;6.05;;;;;;;8.25;100.00;99307.97;10266878;28;20450;-72
2021/01/29 01:22:49;;;;;;;15.52;6.53;;;;;;;8.04;100.00;99272.41;10275514;28;20133;-72
2021/01/29 01:27:59;;;;;;;19.17;7.22;;;;;;;8.09;100.00;99283.53;10266875;28;20133;-73
2021/01/29 01:33:30;;;;;;;20.65;8.88;;;;;;;8.09;100.00;99265.16;10238450;29;20059;-72
2021/01/29 01:38:55;;;;;;;25.80;11.10;;;;;;;8.12;100.00;99271.06;10239639;28;20062;-72
2021/01/29 01:43:59;;;;;;;19.23;9.02;;;;;;;8.04;100.00;99246.19;10274968;28;20431;-73
2021/01/29 01:49:27;;;;;;;20.60;8.23;;;;;;;7.79;100.00;99217.84;10284956;28;20062;-72
2021/01/29 01:55:01;;;;;;;21.05;9.88;;;;;;;7.58;100.00;99206.78;10234468;29;20436;-72
2021/01/29 02:00:13;;;;;;;21.70;8.48;;;;;;;7.44;100.00;99190.97;10234418;29;20503;-72
2021/01/29 02:05:34;;;;;;;20.98;9.57;;;;;;;7.29;100.00;99182.16;10279154;28;20058;-72
2021/01/29 02:10:45;;;;;;;22.00;9.83;;;;;;;7.24;100.00;99178.94;10271958;28;20119;-72
2021/01/29 02:16:00;;;;;;;20.35;9.35;;;;;;;7.29;100.00;99178.69;10206144;29;20492;-72
2021/01/29 02:21:20;;;;;;;19.70;9.00;;;;;;;7.24;100.00;99176.31;10217847;29;20058;-72
2021/01/29 02:27:12;;;;;;;21.40;7.60;;;;;;;7.08;100.00;99152.72;10217961;29;20051;-72
2021/01/29 02:32:33;;;;;;;19.48;7.72;;;;;;;7.16;100.00;99155.78;10239379;29;20563;-72
2021/01/29 02:38:12;;;;;;;21.65;9.80;;;;;;;7.18;100.00;99150.47;10240393;29;20138;-72
2021/01/29 02:44:02;;;;;;;13.93;6.85;;;;;;;7.18;100.00;99142.59;10217299;29;20047;-72
2021/01/29 02:49:59;;;;;;;23.20;7.90;;;;;;;7.16;100.00;99132.22;10161586;29;20160;-72
2021/01/29 02:55:28;;;;;;;22.52;7.97;;;;;;;7.16;100.00;99124.34;10248098;29;20476;-72
2021/01/29 03:01:05;;;;;;;19.10;6.57;;;;;;;7.19;100.00;99099.78;10239922;29;20051;-71
2021/01/29 03:06:31;;;;;;;14.60;5.28;;;;;;;7.27;100.00;99100.22;10233907;29;20079;-71
2021/01/29 03:11:41;;;;;;;14.75;6.22;;;;;;;7.38;100.00;99089.97;10259865;28;20065;-72
2021/01/29 03:17:33;;;;;;;15.00;7.38;;;;;;;7.31;100.00;99066.81;10295908;28;20490;-72
2021/01/29 03:23:05;;;;;;;14.68;7.35;;;;;;;7.34;100.00;99046.53;10295744;28;20426;-71
2021/01/29 03:28:31;;;;;;;17.75;8.02;;;;;;;7.29;100.00;99032.84;10258146;28;20043;-72
2021/01/29 03:34:37;;;;;;;15.38;7.63;;;;;;;7.29;100.00;99014.50;10255532;29;20407;-71
2021/01/29 03:39:56;;;;;;;12.45;5.75;;;;;;;7.31;100.00;98996.09;10254528;28;20452;-71
2021/01/29 03:45:19;;;;;;;13.98;7.38;;;;;;;7.24;100.00;98975.50;10254661;29;20047;-72
2021/01/29 03:50:58;;;;;;;13.88;6.70;;;;;;;7.19;100.00;98955.75;10254154;29;20043;-71
2021/01/29 03:56:28;;;;;;;11.63;5.78;;;;;;;7.25;100.00;98944.91;10201176;29;20047;-72
2021/01/29 04:02:14;;;;;;;13.82;6.72;;;;;;;7.10;100.00;98922.22;10256773;28;20051;-71
2021/01/29 04:08:08;;;;;;;13.90;7.18;;;;;;;7.27;100.00;98916.84;10250130;28;20054;-72
2021/01/29 04:13:47;;;;;;;16.33;7.07;;;;;;;7.32;100.00;98883.38;10218337;29;20508;-72
2021/01/29 04:18:57;;;;;;;15.10;7.63;;;;;;;7.32;100.00;98875.50;10237589;29;20058;-72
2021/01/29 04:24:12;;;;;;;12.63;8.30;;;;;;;7.35;100.00;98869.25;10254220;28;20049;-72
2021/01/29 04:29:17;;;;;;;20.65;8.73;;;;;;;7.29;100.00;98844.25;10237327;28;20479;-72
2021/01/29 04:34:20;;;;;;;;;;;;;;;7.35;100.00;98836.06;10254948;29;20094;-71
2021/01/29 04:39:29;;;;;;;11.75;6.18;;;;;;;7.38;100.00;98816.66;10253082;28;19926;-71
2021/01/29 04:44:45;;;;;;;10.50;6.90;;;;;;;7.43;100.00;98812.00;10254235;29;20058;-71
2021/01/29 04:49:46;;;;;;;11.65;6.10;;;;;;;7.45;100.00;98800.47;10241910;29;20046;-71
2021/01/29 04:55:20;;;;;;;11.85;5.75;;;;;;;7.65;100.00;98819.41;10254005;29;20396;-71
2021/01/29 05:01:07;;;;;;;7.32;3.92;;;;;;;7.93;100.00;98877.09;10236264;29;20114;-73
2021/01/29 05:06:58;;;;;;;4.95;3.38;;;;;;;7.91;100.00;98840.47;10249826;29;20074;-72
2021/01/29 05:12:31;;;;;;;5.90;3.05;;;;;;;7.88;100.00;98835.41;10284142;28;20054;-72
2021/01/29 05:17:57;;;;;;;7.53;3.53;;;;;;;7.72;100.00;98804.97;10255959;28;20061;-72
2021/01/29 05:23:46;;;;;;;3.63;2.47;;;;;;;7.74;100.00;98796.09;10252919;29;20487;-72
2021/01/29 05:29:02;;;;;;;5.53;4.20;;;;;;;7.79;100.00;98783.53;10194673;28;20143;-72
2021/01/29 05:34:28;;;;;;;5.00;3.05;;;;;;;7.92;100.00;98789.72;10257906;28;20050;-72
2021/01/29 05:39:41;;;;;;;4.47;2.58;;;;;;;8.05;100.00;98799.44;10260013;28;20098;-73
2021/01/29 05:45:07;;;;;;;3.10;1.40;;;;;;;8.31;100.00;98807.38;10260711;29;20043;-72
2021/01/29 05:50:32;;;;;;;1.88;1.17;;;;;;;8.50;100.00;98819.31;10259168;29;20046;-73
2021/01/29 05:55:41;;;;;;;2.53;1.23;;;;;;;8.63;100.00;98807.06;10231776;29;20052;-72
2021/01/29 06:00:55;;;;;;;1.98;0.93;;;;;;;8.80;100.00;98801.56;10216604;29;20660;-72
2021/01/29 06:06:18;;;;;;;1.67;1.23;;;;;;;8.94;100.00;98793.63;10223562;29;20396;-72
2021/01/29 06:11:34;;;;;;;2.28;1.60;;;;;;;9.18;100.00;98764.03;10275465;28;20051;-72
2021/01/29 06:17:20;;;;;;;1.75;1.20;;;;;;;9.13;100.00;98743.31;10266349;28;20130;-71
2021/01/29 06:23:02;;;;;;;2.22;1.40;;;;;;;9.23;100.00;98717.25;10259071;29;20071;-71
2021/01/29 06:28:32;;;;;;;3.13;1.52;;;;;;;9.19;100.00;98708.75;10240603;28;20047;-72
2021/01/29 06:34:01;;;;;;;3.67;2.33;;;;;;;9.14;100.00;98695.09;10273276;28;20039;-72
2021/01/29 06:39:31;;;;;;;3.40;2.10;;;;;;;9.18;100.00;98691.31;10273212;28;20059;-72
2021/01/29 06:45:08;;;;;;;2.20;1.60;;;;;;;9.08;100.00;98682.38;10262361;28;20075;-71
2021/01/29 06:50:16;;;;;;;3.15;2.00;;;;;;;9.12;100.00;98689.94;10270177;28;20043;-72
2021/01/29 06:55:39;;;;;;;3.42;1.85;;;;;;;9.16;100.00;98684.47;10246024;28;20047;-71
2021/01/29 07:00:58;;;;;;;3.03;2.00;;;;;;;9.28;100.00;98681.84;10289712;28;20411;-71
2021/01/29 07:06:18;;;;;;;8.02;3.15;;;;;;;9.29;100.00;98687.94;10253060;28;20058;-71
2021/01/29 07:11:56;;;;;;;3.58;2.20;;;;;;;9.27;100.00;98682.78;10258566;28;20054;-72
2021/01/29 07:17:10;;;;;;;8.15;3.13;;;;;;;9.17;100.00;98681.75;10296398;28;20039;-72
2021/01/29 07:22:38;;;;;;;5.57;3.45;;;;;;;9.12;100.00;98675.97;10296862;28;20045;-73
2021/01/29 07:27:44;;;;;;;4.90;3.25;;;;;;;9.14;100.00;98688.03;10288570;28;20044;-72
2021/01/29 07:33:12;;;;;;;7.85;3.38;;;;;;;9.07;100.00;98702.56;10255759;29;20050;-72
2021/01/29 07:38:28;;;;;;;5.40;2.75;;;;;;;9.06;100.00;98703.50;10255711;28;20059;-73
2021/01/29 07:43:53;;;;;;;4.38;1.92;;;;;;;9.17;100.00;98736.06;10214365;29;20078;-72
2021/01/29 07:49:35;;;;;;;5.68;1.95;;;;;;;8.95;100.00;98723.56;10214745;29;20055;-72
2021/01/29 07:54:53;;;;;;;5.55;1.90;;;;;;;8.74;100.00;98729.31;10243555;28;20050;-72
2021/01/29 08:00:15;;;;;;;4.88;2.38;;;;;;;8.81;100.00;98748.13;10262911;28;20408;-73
2021/01/29 08:05:40;;;;;;;10.57;6.40;;;;;;;8.89;100.00;98752.84;10292179;28;20050;-72
2021/01/29 08:10:47;;;;;;;10.70;4.23;;;;;;;8.91;100.00;98766.72;10257959;28;20109;-72
2021/01/29 08:16:01;;;;;;;11.25;3.95;;;;;;;8.95;100.00;98762.97;10293235;28;20061;-70
2021/01/29 08:21:34;;;;;;;12.60;5.40;;;;;;;8.95;100.00;98760.34;10292915;28;20053;-72
2021/01/29 08:26:40;;;;;;;15.77;6.43;;;;;;;9.01;100.00;98783.56;10269743;28;20411;-72
2021/01/29 08:31:46;;;;;;;15.20;5.38;;;;;;;9.18;100.00;98780.63;10262542;28;20047;-72
2021/01/29 08:37:32;;;;;;;19.30;5.25;;;;;;;9.12;100.00;98771.38;10188813;29;20055;-71
2021/01/29 08:42:57;;;;;;;13.90;4.95;;;;;;;9.18;100.00;98775.38;10247841;29;20043;-72
2021/01/29 08:48:07;;;;;;;14.60;5.13;;;;;;;9.25;100.00;98766.13;10255168;29;20519;-72
2021/01/29 08:53:46;;;;;;;16.67;5.22;;;;;;;9.31;100.00;98775.38;10253556;29;20503;-72
2021/01/29 08:58:59;;;;;;;26.65;6.00;;;;;;;9.33;100.00;98765.59;10253639;29;20511;-72
2021/01/29 09:04:14;;;;;;;26.15;6.90;;;;;;;9.39;100.00;98749.41;10257092;28;20039;-71
2021/01/29 09:09:21;;;;;;;25.33;6.18;;;;;;;9.34;100.00;98767.28;10263417;28;20046;-72
2021/01/29 09:14:27;;;;;;;20.23;6.05;;;;;;;9.41;100.00;98779.06;10301706;28;20133;-71
2021/01/29 09:19:29;;;;;;;23.73;5.88;;;;;;;9.55;100.00;98789.47;10301020;28;20134;-71
2021/01/29 09:25:05;;;;;;;26.25;6.82;;;;;;;9.59;100.00;98775.16;10294683;28;20050;-71
2021/01/29 09:30:19;;;;;;;20.30;5.75;;;;;;;9.69;100.00;98773.59;10245702;28;20044;-71
2021/01/29 09:35:28;;;;;;;18.50;5.70;;;;;;;9.72;100.00;98778.63;10259585;29;20047;-72
2021/01/29 09:40:36;;;;;;;16.55;5.18;;;;;;;9.69;100.00;98802.50;10241001;28;20461;-71
2021/01/29 09:45:39;;;;;;;17.35;5.07;;;;;;;9.73;100.00;98818.91;10298112;28;20035;-72
2021/01/29 09:50:41;;;;;;;20.55;5.03;;;;;;;9.60;100.00;98815.44;10272759;28;20047;-71
2021/01/29 09:55:48;;;;;;;18.55;6.10;;;;;;;9.60;100.00;98820.72;10252806;28;20377;-71
2021/01/29 10:01:16;;;;;;;21.70;6.10;;;;;;;9.74;100.00;98842.47;10277498;28;20435;-72
2021/01/29 10:06:48;;;;;;;18.20;4.82;;;;;;;9.75;100.00;98841.53;10300053;28;20070;-72
2021/01/29 10:12:05;;;;;;;21.13;5.35;;;;;;;9.90;100.00;98847.50;10283982;28;20050;-72
2021/01/29 10:17:17;;;;;;;16.08;4.80;;;;;;;10.33;100.00;98870.84;10290816;28;20043;-72
2021/01/29 10:22:46;;;;;;;17.50;5.28;;;;;;;10.83;100.00;98865.41;10256109;28;20043;-72
2021/01/29 10:28:09;;;;;;;24.52;5.63;;;;;;;10.65;100.00;98862.31;10257569;28;20043;-72
2021/01/29 10:33:24;;;;;;;20.17;6.30;;;;;;;11.54;100.00;98897.94;10258248;29;20098;-72
2021/01/29 10:38:28;;;;;;;;;;;;;;;10.50;100.00;98849.41;10258383;28;20056;-72
2021/01/29 10:43:40;;;;;;;19.50;4.80;;;;;;;10.68;100.00;98857.78;10258291;29;20401;-72
2021/01/29 10:48:47;;;;;;;20.98;9.25;;;;;;;10.13;100.00;98848.50;10241348;29;20058;-72
2021/01/29 10:53:56;;;;;;;23.98;6.47;;;;;;;10.24;100.00;98875.81;10264925;28;20053;-72
2021/01/29 10:59:13;;;;;;;17.27;5.97;;;;;;;10.29;100.00;98870.22;10239890;29;20601;-71
2021/01/29 11:04:25;;;;;;;25.00;6.25;;;;;;;10.46;100.00;98884.84;10284185;28;20046;-71
2021/01/29 11:09:31;;;;;;;21.15;6.55;;;;;;;10.37;100.00;98880.22;10294851;28;20050;-73
2021/01/29 11:14:42;;;;;;;15.80;4.18;;;;;;;10.23;100.00;98881.16;10259544;28;20059;-72
2021/01/29 11:19:48;;;;;;;18.17;5.10;;;;;;;10.13;100.00;98877.47;10256690;29;20051;-73
2021/01/29 11:25:01;;;;;;;22.48;5.50;;;;;;;10.09;100.00;98884.75;10256211;28;20043;-72
2021/01/29 11:30:09;;;;;;;22.23;5.75;;;;;;;10.16;100.00;98891.25;10256250;28;20053;-72
2021/01/29 11:35:29;;;;;;;17.58;5.43;;;;;;;10.17;100.00;98886.84;10223785;29;20059;-72
2021/01/29 11:40:50;;;;;;;17.13;5.13;;;;;;;10.09;100.00;98890.00;10255644;28;20129;-71
2021/01/29 11:45:54;;;;;;;25.63;5.95;;;;;;;10.43;100.00;98896.41;10255761;29;20098;-72
2021/01/29 11:50:55;;;;;;;;;;;;;;;11.78;100.00;98923.31;10258019;28;20049;-72
2021/01/29 11:56:04;;;;;;;25.08;5.90;;;;;;;11.26;100.00;98891.22;10294007;28;19922;-72
2021/01/29 12:01:11;;;;;;;23.50;6.07;;;;;;;11.06;100.00;98879.53;10262872;28;20387;-73
2021/01/29 12:06:30;;;;;;;20.80;5.55;;;;;;;14.53;100.00;98966.09;10277136;28;20055;-72
2021/01/29 12:11:44;;;;;;;14.82;4.32;;;;;;;14.74;87.50;98895.28;10268878;28;20054;-72
2021/01/29 12:16:53;;;;;;;19.00;4.60;;;;;;;14.32;88.28;98889.25;10283049;28;20047;-72
2021/01/29 12:22:22;;;;;;;18.15;5.13;;;;;;;14.18;87.17;98872.91;10261643;28;20061;-72
2021/01/29 12:27:41;;;;;;;16.77;4.28;;;;;;;12.32;93.40;98818.81;10278059;28;20046;-71
2021/01/29 12:32:59;;;;;;;17.83;4.85;;;;;;;12.48;92.39;98814.00;10269923;28;20050;-72
2021/01/29 12:38:19;;;;;;;11.35;3.88;;;;;;;12.82;96.02;98867.59;10280810;28;20085;-72
2021/01/29 12:43:39;;;;;;;10.82;3.17;;;;;;;11.83;100.00;98824.50;10276517;28;20042;-72
2021/01/29 12:48:56;;;;;;;13.52;3.65;;;;;;;11.33;100.00;98831.81;10276419;28;20448;-72
2021/01/29 12:54:17;;;;;;;10.82;3.70;;;;;;;12.98;100.00;98923.53;10237509;29;20048;-72
2021/01/29 12:59:37;;;;;;;12.52;6.93;;;;;;;15.57;89.78;98947.91;10273213;28;20359;-72
2021/01/29 13:04:52;;;;;;;15.48;4.15;;;;;;;12.57;88.90;98799.19;10283090;28;20054;-72
2021/01/29 13:10:29;;;;;;;14.15;5.28;;;;;;;11.67;100.00;98820.38;10279917;28;20066;-72
2021/01/29 13:15:58;;;;;;;14.45;4.13;;;;;;;10.08;100.00;98813.81;10266547;28;20039;-71
2021/01/29 13:21:06;;;;;;;9.57;3.58;;;;;;;10.07;100.00;98846.31;10252821;29;20040;-71
2021/01/29 13:26:14;;;;;;;13.15;4.28;;;;;;;10.31;100.00;98872.72;10235802;29;20047;-72
2021/01/29 13:31:20;;;;;;;15.82;3.00;;;;;;;10.05;100.00;98851.69;10253019;28;20047;-71
2021/01/29 13:36:37;;;;;;;13.57;4.07;;;;;;;10.18;100.00;98856.97;10254473;28;20142;-72
2021/01/29 13:42:15;;;;;;;16.45;3.92;;;;;;;10.30;100.00;98844.72;10219202;28;20055;-73
2021/01/29 13:47:24;;;;;;;8.25;2.80;;;;;;;9.89;100.00;98822.16;10249139;28;20051;-73
2021/01/29 13:52:29;;;;;;;8.13;3.10;;;;;;;10.00;100.00;98843.28;10248511;28;20050;-72
2021/01/29 13:57:37;;;;;;;12.95;3.80;;;;;;;9.99;100.00;98831.09;10300013;28;20487;-71
2021/01/29 14:02:47;;;;;;;10.80;3.83;;;;;;;10.26;100.00;98844.13;10265752;28;20046;-71
2021/01/29 14:07:51;;;;;;;11.50;3.80;;;;;;;9.92;100.00;98832.47;10267710;28;20133;-71
2021/01/29 14:13:06;;;;;;;14.73;3.97;;;;;;;9.87;100.00;98838.03;10273805;28;20043;-71
2021/01/29 14:18:43;;;;;;;19.02;5.63;;;;;;;9.75;100.00;98848.56;10259159;29;20047;-71
2021/01/29 14:24:02;;;;;;;12.45;4.00;;;;;;;9.62;100.00;98847.75;10254937;29;20066;-72
2021/01/29 14:29:39;;;;;;;18.90;5.15;;;;;;;9.60;100.00;98866.25;10241259;28;20053;-71
2021/01/29 14:34:49;;;;;;;18.27;5.03;;;;;;;9.34;100.00;98854.84;10243143;29;20066;-71
2021/01/29 14:40:09;;;;;;;14.68;4.22;;;;;;;9.36;100.00;98884.50;10258077;28;20105;-71
2021/01/29 14:45:36;;;;;;;14.02;3.75;;;;;;;9.36;100.00;98888.94;10240588;29;20043;-71
2021/01/29 14:51:02;;;;;;;14.13;3.53;;;;;;;9.50;100.00;98900.19;10257348;29;20051;-71
2021/01/29 14:56:26;;;;;;;;;;;;;;;9.56;100.00;98895.47;10258003;29;20050;-72
2021/01/29 15:01:27;;;;;;;13.45;3.58;;;;;;;9.29;100.00;98895.53;10254388;28;19922;-71
2021/01/29 15:06:31;;;;;;;10.35;4.13;;;;;;;9.17;100.00;98904.22;10264374;28;20176;-71
2021/01/29 15:11:38;;;;;;;9.47;3.57;;;;;;;9.04;100.00;98898.91;10285303;28;20057;-71
2021/01/29 15:16:48;;;;;;;7.05;3.17;;;;;;;8.71;100.00;98894.06;10251825;28;20043;-72
2021/01/29 15:21:52;;;;;;;8.38;2.75;;;;;;;8.46;100.00;98896.53;10278838;28;20038;-71
2021/01/29 15:26:59;;;;;;;10.95;2.83;;;;;;;8.38;100.00;98912.78;10291949;28;20395;-71
2021/01/29 15:32:00;;;;;;;10.65;3.03;;;;;;;8.42;100.00;98939.69;10260431;28;20059;-71
2021/01/29 15:37:02;;;;;;;9.27;3.20;;;;;;;8.13;100.00;98936.16;10283416;28;20368;-71
2021/01/29 15:42:06;;;;;;;6.80;3.40;;;;;;;8.11;100.00;98946.78;10295921;28;20062;-71
2021/01/29 15:47:45;;;;;;;6.90;3.80;;;;;;;8.09;100.00;98951.28;10282931;28;20488;-71
2021/01/29 15:52:48;;;;;;;8.00;3.65;;;;;;;8.05;100.00;98949.75;10269346;28;20046;-70
2021/01/29 15:57:54;;;;;;;10.23;3.55;;;;;;;8.09;100.00;98950.44;10267210;28;20050;-71
2021/01/29 16:02:59;;;;;;;11.13;3.80;;;;;;;8.02;100.00;98957.81;10278429;28;20445;-72
2021/01/29 16:08:04;;;;;;;8.88;3.30;;;;;;;7.94;100.00;98955.66;10254670;29;20043;-73
2021/01/29 16:13:10;;;;;;;11.55;3.30;;;;;;;7.85;100.00;98960.63;10273145;28;20046;-72
2021/01/29 16:18:18;;;;;;;8.18;3.47;;;;;;;7.74;100.00;98956.00;10272159;28;20045;-72
2021/01/29 16:23:29;;;;;;;6.45;2.85;;;;;;;7.68;100.00;98942.41;10235948;28;20043;-73
2021/01/29 16:28:34;;;;;;;7.90;2.97;;;;;;;7.45;100.00;98938.50;10253437;28;20486;-73
2021/01/29 16:33:35;;;;;;;6.75;2.58;;;;;;;7.63;100.00;98951.38;10252873;29;20058;-72
2021/01/29 16:38:41;;;;;;;4.55;2.13;;;;;;;7.45;100.00;98941.97;10251722;29;20052;-72
2021/01/29 16:43:42;;;;;;;5.57;2.72;;;;;;;7.30;100.00;98955.09;10254716;28;20133;-72
2021/01/29 16:48:43;;;;;;;12.55;5.35;;;;;;;7.39;100.00;98965.91;10293289;28;20051;-73
2021/01/29 16:54:04;;;;;;;9.50;3.17;;;;;;;7.54;100.00;98985.97;10264461;28;20042;-73
2021/01/29 16:59:10;;;;;;;8.70;3.00;;;;;;;7.60;100.00;98997.91;10275806;28;20074;-73
2021/01/29 17:04:12;;;;;;;9.90;2.97;;;;;;;7.69;100.00;99009.63;10250013;28;20039;-72
2021/01/29 17:09:23;;;;;;;9.93;3.42;;;;;;;7.79;100.00;99023.88;10256431;28;20070;-73
2021/01/29 17:14:28;;;;;;;7.88;4.55;;;;;;;7.81;100.00;99024.63;10273864;28;20076;-73
2021/01/29 17:19:31;;;;;;;12.65;5.22;;;;;;;7.82;100.00;99011.44;10271239;28;20051;-73
2021/01/29 17:24:43;;;;;;;7.65;3.28;;;;;;;7.71;100.00;99024.31;10252864;28;20066;-73
2021/01/29 17:29:50;;;;;;;8.05;3.65;;;;;;;7.65;100.00;99031.69;10255210;28;20078;-72
2021/01/29 17:35:27;;;;;;;10.63;3.63;;;;;;;7.67;100.00;99061.28;10259725;29;20043;-72
2021/01/29 17:40:33;;;;;;;9.80;3.80;;;;;;;7.70;100.00;99069.00;10250979;28;20062;-72
2021/01/29 17:45:36;;;;;;;10.82;4.65;;;;;;;7.92;100.00;99095.66;10265216;28;20031;-72
2021/01/29 17:50:43;;;;;;;11.77;4.75;;;;;;;7.97;100.00;99094.44;10242018;29;20412;-72
2021/01/29 17:55:49;;;;;;;11.13;4.15;;;;;;;8.07;100.00;99094.75;10257010;28;20404;-73
2021/01/29 18:01:07;;;;;;;12.43;5.22;;;;;;;8.21;100.00;99105.28;10244088;28;20856;-73
2021/01/29 18:06:18;;;;;;;13.55;4.30;;;;;;;8.33;100.00;99116.88;10250995;29;20047;-73
2021/01/29 18:11:27;;;;;;;14.18;5.47;;;;;;;8.35;100.00;99139.47;10265897;28;20059;-72
2021/01/29 18:16:35;;;;;;;19.52;11.20;;;;;;;8.40;100.00;99138.34;10257803;28;20048;-73
2021/01/29 18:21:41;;;;;;;12.55;5.40;;;;;;;8.38;100.00;99138.44;10258143;29;20043;-72
2021/01/29 18:26:44;;;;;;;16.60;5.55;;;;;;;8.29;100.00;99136.31;10259827;28;20047;-73
2021/01/29 18:31:47;;;;;;;15.93;6.32;;;;;;;8.26;100.00;99121.63;10260960;28;20051;-73
2021/01/29 18:36:50;;;;;;;17.13;5.97;;;;;;;8.22;100.00;99132.38;10298902;28;20050;-73
2021/01/29 18:41:51;;;;;;;14.15;5.75;;;;;;;8.23;100.00;99153.25;10297498;28;20053;-72
2021/01/29 18:46:52;;;;;;;13.32;5.95;;;;;;;8.24;100.00;99141.84;10229797;28;20063;-72
2021/01/29 18:51:54;;;;;;;12.85;5.55;;;;;;;8.33;100.00;99164.09;10257138;28;20061;-72
2021/01/29 18:56:55;;;;;;;17.58;6.38;;;;;;;8.33;100.00;99169.34;10240180;29;20488;-73
2021/01/29 19:02:01;;;;;;;19.15;6.97;;;;;;;8.25;100.00;99164.53;10257582;28;20047;-72
2021/01/29 19:07:05;;;;;;;16.33;7.22;;;;;;;8.29;100.00;99179.13;10257669;29;20039;-73
2021/01/29 19:12:10;;;;;;;33.45;16.15;;;;;;;8.37;100.00;99183.97;10265478;28;20041;-72
2021/01/29 19:17:17;;;;;;;30.63;14.48;;;;;;;8.35;100.00;99180.63;10260142;28;20432;-72
2021/01/29 19:22:19;;;;;;;54.58;24.73;;;;;;;8.38;100.00;99178.66;10276739;28;20090;-72
2021/01/29 19:27:20;;;;;;;20.58;10.48;;;;;;;8.35;100.00;99170.13;10260787;28;20043;-72
2021/01/29 19:32:21;;;;;;;19.60;7.80;;;;;;;8.32;100.00;99180.78;10266651;28;20047;-72
2021/01/29 19:37:23;;;;;;;16.90;7.03;;;;;;;8.40;100.00;99196.94;10270896;28;20122;-73
2021/01/29 19:42:26;;;;;;;17.70;6.95;;;;;;;8.36;100.00;99191.03;10248203;28;20051;-73
2021/01/29 19:47:27;;;;;;;20.92;9.02;;;;;;;8.44;100.00;99202.84;10271781;28;20483;-72
2021/01/29 19:52:28;;;;;;;19.15;7.70;;;;;;;8.35;100.00;99205.09;10273773;28;20542;-72
2021/01/29 19:57:30;;;;;;;19.77;9.10;;;;;;;8.40;100.00;99210.06;10272199;28;20071;-73
2021/01/29 20:02:31;;;;;;;19.70;8.45;;;;;;;8.17;100.00;99192.13;10275190;28;20053;-73
2021/01/29 20:07:32;;;;;;;19.15;9.57;;;;;;;8.31;100.00;99214.03;10276169;28;20053;-73
2021/01/29 20:12:33;;;;;;;20.42;9.52;;;;;;;8.16;100.00;99214.88;10270015;28;20045;-72
2021/01/29 20:17:35;;;;;;;21.60;10.32;;;;;;;8.08;100.00;99218.88;10273836;28;20061;-72
2021/01/29 20:22:37;;;;;;;22.10;10.68;;;;;;;8.14;100.00;99226.41;10275388;28;20051;-73
2021/01/29 20:27:39;;;;;;;23.40;11.23;;;;;;;8.09;100.00;99225.81;10269324;28;20066;-73
2021/01/29 20:32:41;;;;;;;21.65;9.52;;;;;;;8.11;100.00;99229.22;10276311;28;20412;-72
2021/01/29 20:37:43;;;;;;;21.38;10.77;;;;;;;8.06;100.00;99245.19;10271883;28;20050;-73
2021/01/29 20:42:44;;;;;;;25.50;11.73;;;;;;;7.97;100.00;99250.94;10273684;28;20047;-74
2021/01/29 20:47:46;;;;;;;23.17;11.27;;;;;;;7.92;100.00;99248.59;10274938;28;20047;-73
2021/01/29 20:52:53;;;;;;;18.70;8.23;;;;;;;7.88;100.00;99264.56;10269440;28;20051;-73
2021/01/29 20:57:55;;;;;;;12.25;6.72;;;;;;;7.85;100.00;99259.50;10265065;28;20086;-73
2021/01/29 21:02:57;;;;;;;14.93;5.97;;;;;;;7.76;100.00;99258.22;10269735;28;20039;-73
2021/01/29 21:07:59;;;;;;;11.35;6.22;;;;;;;7.91;100.00;99291.47;10281090;28;20050;-73
2021/01/29 21:13:02;;;;;;;10.35;5.28;;;;;;;7.77;100.00;99264.31;10266005;28;20046;-72
2021/01/29 21:18:06;;;;;;;6.93;5.07;;;;;;;7.72;100.00;99263.69;10271114;28;20078;-72
2021/01/29 21:23:09;;;;;;;15.57;6.20;;;;;;;7.66;100.00;99264.03;10300621;28;20101;-72
2021/01/29 21:28:10;;;;;;;10.18;5.95;;;;;;;7.54;100.00;99265.53;10287671;28;20113;-73
2021/01/29 21:33:13;;;;;;;11.20;5.25;;;;;;;7.61;100.00;99296.56;10238155;29;20123;-72
2021/01/29 21:38:19;;;;;;;8.68;4.97;;;;;;;7.51;100.00;99276.19;10259418;29;20059;-72
2021/01/29 21:43:21;;;;;;;9.75;5.53;;;;;;;7.45;100.00;99268.63;10260046;29;20543;-73
2021/01/29 21:48:33;;;;;;;10.15;5.82;;;;;;;7.47;100.00;99282.50;10260259;28;20047;-72
2021/01/29 21:53:35;;;;;;;12.27;5.90;;;;;;;7.45;100.00;99287.81;10292634;28;20049;-72
2021/01/29 21:58:40;;;;;;;12.85;6.25;;;;;;;7.46;100.00;99284.28;10267202;28;20731;-72
2021/01/29 22:03:42;;;;;;;12.95;6.40;;;;;;;7.56;100.00;99314.31;10266028;28;20051;-72
2021/01/29 22:08:43;;;;;;;14.50;6.22;;;;;;;7.58;100.00;99322.94;10282066;28;20081;-72
2021/01/29 22:13:45;;;;;;;16.08;7.10;;;;;;;7.60;100.00;99321.09;10257558;28;20047;-72
2021/01/29 22:18:48;;;;;;;12.35;7.80;;;;;;;7.50;100.00;99319.03;10268170;28;20458;-72
2021/01/29 22:23:50;;;;;;;13.27;8.32;;;;;;;7.61;100.00;99333.25;10268044;28;20055;-72
2021/01/29 22:28:51;;;;;;;11.98;7.88;;;;;;;7.62;100.00;99341.97;10257559;28;20075;-73
2021/01/29 22:33:52;;;;;;;14.25;6.90;;;;;;;7.58;100.00;99343.06;10258503;29;20047;-73
2021/01/29 22:38:53;;;;;;;11.80;6.40;;;;;;;7.46;100.00;99328.81;10257239;28;20110;-73
2021/01/29 22:43:54;;;;;;;12.63;6.47;;;;;;;7.43;100.00;99339.47;10257931;29;20492;-72
2021/01/29 22:48:56;;;;;;;12.35;7.95;;;;;;;7.44;100.00;99345.56;10257565;28;20054;-72
2021/01/29 22:53:57;;;;;;;13.13;7.15;;;;;;;7.42;100.00;99350.03;10291756;28;20050;-73
2021/01/29 22:58:58;;;;;;;13.57;6.25;;;;;;;7.46;100.00;99354.19;10261181;28;20047;-73
2021/01/29 23:03:59;;;;;;;12.02;5.82;;;;;;;7.43;100.00;99364.84;10240090;29;20058;-72
2021/01/29 23:09:02;;;;;;;9.00;5.82;;;;;;;7.41;100.00;99364.06;10256685;29;20483;-73
2021/01/29 23:14:05;;;;;;;9.93;6.38;;;;;;;7.27;100.00;99354.28;10256863;29;20054;-73
2021/01/29 23:19:06;;;;;;;11.38;7.10;;;;;;;7.24;100.00;99371.00;10256554;28;20039;-72
2021/01/29 23:24:07;;;;;;;11.27;7.70;;;;;;;7.18;100.00;99358.22;10256621;28;20055;-73
2021/01/29 23:29:08;;;;;;;10.45;6.53;;;;;;;7.11;100.00;99356.00;10254869;28;20116;-72
2021/01/29 23:34:09;;;;;;;10.70;6.57;;;;;;;7.13;100.00;99365.44;10255092;29;20044;-73
2021/01/29 23:39:10;;;;;;;10.93;5.05;;;;;;;7.09;100.00;99376.16;10255647;28;20039;-73
2021/01/29 23:44:11;;;;;;;8.75;5.75;;;;;;;7.05;100.00;99379.84;10255173;29;20051;-73
2021/01/29 23:49:13;;;;;;;11.13;5.70;;;;;;;7.04;100.00;99386.00;10255072;29;20055;-73
2021/01/29 23:54:14;;;;;;;9.95;6.20;;;;;;;6.99;100.00;99374.91;10245142;28;20062;-73
2021/01/29 23:59:15;;;;;;;11.23;6.20;;;;;;;6.98;100.00;99392.41;10277757;28;20490;-73
